Vi Nais — HO4770 — position and weather

sailwx.info

Track history (hours):
 
Tides and Currents Weather Stations Pressure Air Temp Water Temp Dewpoint Dewpoint Depression Visibility Wind Speed Wind Dir Waves Ship Positions

Vi Nais

Last reported at 2017-Oct-14 03:39 UTC. Time now 2017-Oct-18 20:32 UTC.
Position N 25°56' W 079°29'.

Length 58 m; draft 2.5 m.

Type: Cargo ship. MMSI: 356907000.

Date/timePositionNaut miles runAvg speedWind from/ knotsBaromVisibWave heightAir tempDewpointWater temp
2017-Oct-14 03:39N 25°56' W 079°29'2 7.3
2017-Oct-14 03:25N 25°57' W 079°30'4 8.6
2017-Oct-14 02:59N 25°58' W 079°34'4 8.4
2017-Oct-14 02:30N 25°59' W 079°39'4 8.3
2017-Oct-14 02:00N 26°00' W 079°43'4 8.5
2017-Oct-14 01:30N 26°01' W 079°48'5 9.0
2017-Oct-14 00:59N 26°03' W 079°53'610.3
2017-Oct-14 00:27N 26°04' W 079°59'510.2
2017-Oct-13 23:58N 26°05' W 080°04'3 5.6
2017-Oct-13 23:26N 26°05' W 080°07'0 0.0
2017-Oct-13 23:00N 26°05' W 080°07'0 0.0
2017-Oct-13 22:30N 26°05' W 080°07'0 0.0
2017-Oct-13 22:00N 26°05' W 080°07'0 0.0
2017-Oct-13 21:30N 26°05' W 080°07'0 0.0
2017-Oct-13 21:00N 26°05' W 080°07'0 0.0
2017-Oct-13 20:30N 26°05' W 080°07'0 0.0
2017-Oct-13 20:00N 26°05' W 080°07'0 0.0
2017-Oct-13 19:30N 26°05' W 080°07'0 0.0
2017-Oct-13 19:00N 26°05' W 080°07'0 0.0
2017-Oct-13 18:30N 26°05' W 080°07'0 0.0
2017-Oct-13 18:00N 26°05' W 080°07'0 1.0
2017-Oct-13 17:30N 26°06' W 080°07'5 9.1
2017-Oct-13 17:00N 26°06' W 080°02'4 8.5
2017-Oct-13 16:30N 26°04' W 079°58'4 8.9
2017-Oct-13 16:00N 26°02' W 079°53'4 8.4
2017-Oct-13 15:30N 26°01' W 079°48'4 8.4
2017-Oct-13 15:00N 26°00' W 079°44'4 8.5
2017-Oct-13 14:30N 25°59' W 079°39'5 9.1
2017-Oct-13 14:00N 25°57' W 079°35'  
2017-Oct-10 21:52N 26°46' W 080°02'1 2.1
2017-Oct-10 21:12N 26°46' W 080°03'0 0.0
2017-Oct-10 20:57N 26°46' W 080°03'0 0.0
2017-Oct-10 12:08N 26°46' W 080°03'  
2017-Oct-07 04:14N 26°30' W 079°39'310.6
2017-Oct-07 04:00N 26°28' W 079°41'510.5
2017-Oct-07 03:30N 26°24' W 079°45'510.3
2017-Oct-07 03:00N 26°21' W 079°49'510.1
2017-Oct-07 02:30N 26°17' W 079°53'5 9.8
2017-Oct-07 02:00N 26°13' W 079°56'5 9.8
2017-Oct-07 01:30N 26°10' W 080°00'5 9.5
2017-Oct-07 01:00N 26°07' W 080°04'3 5.9
2017-Oct-07 00:30N 26°05' W 080°07'0 0.0
2017-Oct-07 00:00N 26°05' W 080°07'0 0.0
2017-Oct-06 23:30N 26°05' W 080°07'0 0.0
2017-Oct-06 23:00N 26°05' W 080°07'0 0.0
2017-Oct-06 22:30N 26°05' W 080°07'0 0.0
2017-Oct-06 22:00N 26°05' W 080°07'0 0.0
2017-Oct-06 21:30N 26°05' W 080°07'0 0.0
2017-Oct-06 21:00N 26°05' W 080°07'0 0.0
2017-Oct-06 20:30N 26°05' W 080°07'0 0.0
2017-Oct-06 20:00N 26°05' W 080°07'0 0.0
2017-Oct-06 19:30N 26°05' W 080°07'0 0.0
2017-Oct-06 19:00N 26°05' W 080°07'0 0.0
2017-Oct-06 18:30N 26°05' W 080°07'0 0.0
2017-Oct-06 18:00N 26°05' W 080°07'0 0.0
2017-Oct-06 17:30N 26°05' W 080°07'0 0.0
2017-Oct-06 17:00N 26°05' W 080°07'0 0.0
2017-Oct-06 16:30N 26°05' W 080°07'0 0.0
2017-Oct-06 16:00N 26°05' W 080°07'0 0.0
2017-Oct-06 15:30N 26°05' W 080°07'0 0.0
2017-Oct-06 15:00N 26°05' W 080°07'0 0.0
2017-Oct-06 14:30N 26°05' W 080°07'0 0.0
2017-Oct-06 14:00N 26°05' W 080°07'0 0.2
2017-Oct-06 12:40N 26°05' W 080°07'2 9.7
2017-Oct-06 12:30N 26°06' W 080°05'4 7.0
2017-Oct-06 12:00N 26°04' W 080°02'3 6.5
2017-Oct-06 11:30N 26°04' W 079°58'4 7.5
2017-Oct-06 11:00N 26°03' W 079°54'4 7.8
2017-Oct-06 10:30N 26°01' W 079°50'4 7.5
2017-Oct-06 10:00N 26°00' W 079°46'4 7.3
2017-Oct-06 09:30N 25°59' W 079°42'4 7.2
2017-Oct-06 09:00N 25°58' W 079°38'4 7.1
2017-Oct-06 08:30N 25°58' W 079°34'3 6.8
2017-Oct-06 08:00N 25°56' W 079°31'  
Track history (hours):
 
Tides and Currents Weather Stations Pressure Air Temp Water Temp Dewpoint Dewpoint Depression Visibility Wind Speed Wind Dir Waves Ship Positions

Vi Nais

Last reported at 2017-Oct-14 03:39 UTC. Time now 2017-Oct-18 20:32 UTC.
Position N 25°56' W 079°29'.

Length 58 m; draft 2.5 m.

Type: Cargo ship. MMSI: 356907000.

Date/timePositionNaut miles runAvg speedWind from/ knotsBaromVisibWave heightAir tempDewpointWater temp
2017-Oct-14 03:39N 25°56' W 079°29'2 7.3
2017-Oct-14 03:25N 25°57' W 079°30'4 8.6
2017-Oct-14 02:59N 25°58' W 079°34'4 8.4
2017-Oct-14 02:30N 25°59' W 079°39'4 8.3
2017-Oct-14 02:00N 26°00' W 079°43'4 8.5
2017-Oct-14 01:30N 26°01' W 079°48'5 9.0
2017-Oct-14 00:59N 26°03' W 079°53'610.3
2017-Oct-14 00:27N 26°04' W 079°59'510.2
2017-Oct-13 23:58N 26°05' W 080°04'3 5.6
2017-Oct-13 23:26N 26°05' W 080°07'0 0.0
2017-Oct-13 23:00N 26°05' W 080°07'0 0.0
2017-Oct-13 22:30N 26°05' W 080°07'0 0.0
2017-Oct-13 22:00N 26°05' W 080°07'0 0.0
2017-Oct-13 21:30N 26°05' W 080°07'0 0.0
2017-Oct-13 21:00N 26°05' W 080°07'0 0.0
2017-Oct-13 20:30N 26°05' W 080°07'0 0.0
2017-Oct-13 20:00N 26°05' W 080°07'0 0.0
2017-Oct-13 19:30N 26°05' W 080°07'0 0.0
2017-Oct-13 19:00N 26°05' W 080°07'0 0.0
2017-Oct-13 18:30N 26°05' W 080°07'0 0.0
2017-Oct-13 18:00N 26°05' W 080°07'0 1.0
2017-Oct-13 17:30N 26°06' W 080°07'5 9.1
2017-Oct-13 17:00N 26°06' W 080°02'4 8.5
2017-Oct-13 16:30N 26°04' W 079°58'4 8.9
2017-Oct-13 16:00N 26°02' W 079°53'4 8.4
2017-Oct-13 15:30N 26°01' W 079°48'4 8.4
2017-Oct-13 15:00N 26°00' W 079°44'4 8.5
2017-Oct-13 14:30N 25°59' W 079°39'5 9.1
2017-Oct-13 14:00N 25°57' W 079°35'  
2017-Oct-10 21:52N 26°46' W 080°02'1 2.1
2017-Oct-10 21:12N 26°46' W 080°03'0 0.0
2017-Oct-10 20:57N 26°46' W 080°03'0 0.0
2017-Oct-10 12:08N 26°46' W 080°03'  
2017-Oct-07 04:14N 26°30' W 079°39'310.6
2017-Oct-07 04:00N 26°28' W 079°41'510.5
2017-Oct-07 03:30N 26°24' W 079°45'510.3
2017-Oct-07 03:00N 26°21' W 079°49'510.1
2017-Oct-07 02:30N 26°17' W 079°53'5 9.8
2017-Oct-07 02:00N 26°13' W 079°56'5 9.8
2017-Oct-07 01:30N 26°10' W 080°00'5 9.5
2017-Oct-07 01:00N 26°07' W 080°04'3 5.9
2017-Oct-07 00:30N 26°05' W 080°07'0 0.0
2017-Oct-07 00:00N 26°05' W 080°07'0 0.0
2017-Oct-06 23:30N 26°05' W 080°07'0 0.0
2017-Oct-06 23:00N 26°05' W 080°07'0 0.0
2017-Oct-06 22:30N 26°05' W 080°07'0 0.0
2017-Oct-06 22:00N 26°05' W 080°07'0 0.0
2017-Oct-06 21:30N 26°05' W 080°07'0 0.0
2017-Oct-06 21:00N 26°05' W 080°07'0 0.0
2017-Oct-06 20:30N 26°05' W 080°07'0 0.0
2017-Oct-06 20:00N 26°05' W 080°07'0 0.0
2017-Oct-06 19:30N 26°05' W 080°07'0 0.0
2017-Oct-06 19:00N 26°05' W 080°07'0 0.0
2017-Oct-06 18:30N 26°05' W 080°07'0 0.0
2017-Oct-06 18:00N 26°05' W 080°07'0 0.0
2017-Oct-06 17:30N 26°05' W 080°07'0 0.0
2017-Oct-06 17:00N 26°05' W 080°07'0 0.0
2017-Oct-06 16:30N 26°05' W 080°07'0 0.0
2017-Oct-06 16:00N 26°05' W 080°07'0 0.0
2017-Oct-06 15:30N 26°05' W 080°07'0 0.0
2017-Oct-06 15:00N 26°05' W 080°07'0 0.0
2017-Oct-06 14:30N 26°05' W 080°07'0 0.0
2017-Oct-06 14:00N 26°05' W 080°07'0 0.2
2017-Oct-06 12:40N 26°05' W 080°07'2 9.7
2017-Oct-06 12:30N 26°06' W 080°05'4 7.0
2017-Oct-06 12:00N 26°04' W 080°02'3 6.5
2017-Oct-06 11:30N 26°04' W 079°58'4 7.5
2017-Oct-06 11:00N 26°03' W 079°54'4 7.8
2017-Oct-06 10:30N 26°01' W 079°50'4 7.5
2017-Oct-06 10:00N 26°00' W 079°46'4 7.3
2017-Oct-06 09:30N 25°59' W 079°42'4 7.2
2017-Oct-06 09:00N 25°58' W 079°38'4 7.1
2017-Oct-06 08:30N 25°58' W 079°34'3 6.8
2017-Oct-06 08:00N 25°56' W 079°31'  

Dump ship's entire track history